createdAt,value
2022-10-30T00:00:16.959Z,99.78
2022-10-30T00:01:16.982Z,99.78
2022-10-30T00:02:17.029Z,98.82
2022-10-30T00:03:17.045Z,98.82
2022-10-30T00:04:16.893Z,98.24
2022-10-30T00:05:16.882Z,98.05
2022-10-30T00:07:16.844Z,99.30
2022-10-30T00:08:16.833Z,98.24
2022-10-30T00:09:16.815Z,98.44
2022-10-30T00:10:16.796Z,98.34
2022-10-30T00:11:16.785Z,97.96
2022-10-30T00:12:16.771Z,98.14
2022-10-30T00:13:16.770Z,98.14
2022-10-30T00:14:16.735Z,97.76
2022-10-30T00:15:16.725Z,97.67
2022-10-30T00:16:16.702Z,97.76
2022-10-30T00:17:16.686Z,97.57
2022-10-30T00:18:16.673Z,98.05
2022-10-30T00:19:16.665Z,97.96
2022-10-30T00:20:16.641Z,97.86
2022-10-30T00:21:16.621Z,97.76
2022-10-30T00:22:16.603Z,97.86
2022-10-30T00:23:16.592Z,97.67
2022-10-30T00:24:16.577Z,98.14
2022-10-30T00:25:16.566Z,98.14
2022-10-30T00:26:16.554Z,98.72
2022-10-30T00:27:16.535Z,98.91
2022-10-30T00:28:16.510Z,99.30
2022-10-30T00:29:16.512Z,99.21
2022-10-30T00:30:16.511Z,99.01
2022-10-30T00:31:16.471Z,99.99
2022-10-30T00:32:16.445Z,99.49
2022-10-30T00:33:16.434Z,99.30
2022-10-30T00:34:16.413Z,99.99
2022-10-30T00:35:16.399Z,98.72
2022-10-30T00:36:16.386Z,98.72
2022-10-30T00:37:16.366Z,99.54
2022-10-30T00:38:16.355Z,99.68
2022-10-30T00:39:16.335Z,99.06
2022-10-30T00:40:16.330Z,99.78
2022-10-30T00:41:16.302Z,99.99
2022-10-30T00:42:16.287Z,98.86
2022-10-30T00:43:16.269Z,99.49
2022-10-30T00:44:16.259Z,98.58
2022-10-30T00:45:16.258Z,98.19
2022-10-30T00:46:16.225Z,98.10
2022-10-30T00:47:16.202Z,98.29
2022-10-30T00:48:16.191Z,96.94
2022-10-30T00:49:16.175Z,96.85
2022-10-30T00:50:16.271Z,96.66
2022-10-30T00:51:16.138Z,96.37
2022-10-30T00:52:16.125Z,95.79
2022-10-30T00:53:16.110Z,95.79
2022-10-30T00:54:16.094Z,95.40
2022-10-30T00:55:16.074Z,94.83
2022-10-30T00:56:16.065Z,94.83
2022-10-30T00:57:16.045Z,94.35
2022-10-30T00:58:16.032Z,93.77
2022-10-30T00:59:16.010Z,94.26
2022-10-30T01:00:16.007Z,94.26
2022-10-30T01:01:16.130Z,93.96
2022-10-30T01:02:16.129Z,94.26
2022-10-30T01:03:15.944Z,93.58
2022-10-30T01:04:15.935Z,93.58
2022-10-30T01:05:15.913Z,93.39
2022-10-30T01:06:15.898Z,93.29
2022-10-30T01:07:15.881Z,93.77
2022-10-30T01:08:15.934Z,93.58
2022-10-30T01:09:16.002Z,93.96
2022-10-30T01:10:15.834Z,93.92
2022-10-30T01:11:15.816Z,93.54
2022-10-30T01:12:15.805Z,92.57
2022-10-30T01:13:15.783Z,92.38
2022-10-30T01:14:15.771Z,91.71
2022-10-30T01:15:15.749Z,92.00
2022-10-30T01:16:15.740Z,92.38
2022-10-30T01:17:15.738Z,91.90
2022-10-30T01:18:15.700Z,92.19
2022-10-30T01:19:15.684Z,92.48
2022-10-30T01:20:15.670Z,92.10
2022-10-30T01:21:15.656Z,91.61
2022-10-30T01:22:15.634Z,90.56
2022-10-30T01:23:15.627Z,90.75
2022-10-30T01:24:15.602Z,91.33
2022-10-30T01:25:15.584Z,91.61
2022-10-30T01:26:15.568Z,91.61
2022-10-30T01:27:15.554Z,91.04
2022-10-30T01:28:15.545Z,91.13
2022-10-30T01:29:15.518Z,91.33
2022-10-30T01:30:15.509Z,91.28
2022-10-30T01:31:15.493Z,90.42
2022-10-30T01:32:15.472Z,89.94
2022-10-30T01:33:15.473Z,89.17
2022-10-30T01:34:15.451Z,88.49
2022-10-30T01:35:15.429Z,88.59
2022-10-30T01:36:15.410Z,88.31
2022-10-30T01:37:15.394Z,87.25
2022-10-30T01:38:15.371Z,87.05
2022-10-30T01:39:15.355Z,86.58
2022-10-30T01:40:15.341Z,86.58
2022-10-30T01:41:15.325Z,86.19
2022-10-30T01:42:15.313Z,86.58
2022-10-30T01:43:15.300Z,86.43
2022-10-30T01:44:15.276Z,86.29
2022-10-30T01:45:15.258Z,86.33
2022-10-30T01:46:15.246Z,86.48
2022-10-30T01:47:15.225Z,86.48
2022-10-30T01:48:15.214Z,86.33
2022-10-30T01:49:15.261Z,86.77
2022-10-30T01:50:15.177Z,86.29
2022-10-30T01:51:15.158Z,86.48
2022-10-30T01:52:15.142Z,86.29
2022-10-30T01:53:15.121Z,87.15
2022-10-30T01:54:15.106Z,87.05
2022-10-30T01:55:15.091Z,87.44
2022-10-30T01:56:15.079Z,87.58
2022-10-30T01:57:15.066Z,87.25
2022-10-30T01:58:15.039Z,87.54
2022-10-30T01:59:15.031Z,87.15
2022-10-30T02:00:15.010Z,86.77
2022-10-30T02:01:15.085Z,86.77
2022-10-30T02:02:15.145Z,86.87
2022-10-30T02:03:14.959Z,86.29
2022-10-30T02:04:14.941Z,86.19
2022-10-30T02:05:14.946Z,86.38
2022-10-30T02:06:14.912Z,85.91
2022-10-30T02:07:14.889Z,85.42
2022-10-30T02:08:14.878Z,84.66
2022-10-30T02:09:14.856Z,85.33
2022-10-30T02:10:14.842Z,84.27
2022-10-30T02:11:14.823Z,84.18
2022-10-30T02:12:14.809Z,84.18
2022-10-30T02:13:14.799Z,84.37
2022-10-30T02:14:14.776Z,83.65
2022-10-30T02:15:14.758Z,83.75
2022-10-30T02:16:14.738Z,83.56
2022-10-30T02:17:14.726Z,83.75
2022-10-30T02:18:14.704Z,83.08
2022-10-30T02:19:14.686Z,82.89
2022-10-30T02:20:14.677Z,82.79
2022-10-30T02:21:14.672Z,82.12
2022-10-30T02:22:14.752Z,82.31
2022-10-30T02:23:14.626Z,81.93
2022-10-30T02:24:14.608Z,81.45
2022-10-30T02:25:14.587Z,81.93
2022-10-30T02:26:14.570Z,81.93
2022-10-30T02:27:14.560Z,82.51
2022-10-30T02:28:14.540Z,82.12
2022-10-30T02:29:14.523Z,82.21
2022-10-30T02:30:14.514Z,83.47
2022-10-30T02:31:14.490Z,82.89
2022-10-30T02:32:14.472Z,82.41
2022-10-30T02:33:14.503Z,80.78
2022-10-30T02:34:14.437Z,80.30
2022-10-30T02:35:14.427Z,79.63
2022-10-30T02:36:14.402Z,79.05
2022-10-30T02:37:14.404Z,79.91
2022-10-30T02:38:14.372Z,79.82
2022-10-30T02:39:14.352Z,80.20
2022-10-30T02:40:14.341Z,79.91
2022-10-30T02:41:14.318Z,79.14
2022-10-30T02:42:14.302Z,79.53
2022-10-30T02:43:14.287Z,79.53
2022-10-30T02:44:14.271Z,79.91
2022-10-30T02:45:14.252Z,80.11
2022-10-30T02:46:14.232Z,80.49
2022-10-30T02:47:14.217Z,80.11
2022-10-30T02:48:14.206Z,80.30
2022-10-30T02:49:14.184Z,79.82
2022-10-30T02:50:14.170Z,79.91
2022-10-30T02:51:14.152Z,80.58
2022-10-30T02:52:14.132Z,81.74
2022-10-30T02:53:14.137Z,81.84
2022-10-30T02:54:14.104Z,81.84
2022-10-30T02:55:14.079Z,82.12
2022-10-30T02:56:14.067Z,82.03
2022-10-30T02:57:14.044Z,82.03
2022-10-30T02:58:14.029Z,81.54
2022-10-30T02:59:14.014Z,81.68
2022-10-30T03:00:13.998Z,81.74
2022-10-30T03:01:14.204Z,82.31
2022-10-30T03:02:14.042Z,82.12
2022-10-30T03:03:13.946Z,82.21
2022-10-30T03:04:13.930Z,81.84
2022-10-30T03:05:13.915Z,81.74
2022-10-30T03:06:13.898Z,80.78
2022-10-30T03:07:13.881Z,81.26
2022-10-30T03:08:13.868Z,81.74
2022-10-30T03:09:13.868Z,81.74
2022-10-30T03:10:13.838Z,81.74
2022-10-30T03:11:13.820Z,82.03
2022-10-30T03:12:13.794Z,82.89
2022-10-30T03:13:13.775Z,82.98
2022-10-30T03:14:13.765Z,86.05
2022-10-30T03:15:13.745Z,87.40
2022-10-30T03:16:13.727Z,87.11
2022-10-30T03:17:13.716Z,87.40
2022-10-30T03:18:13.691Z,86.72
2022-10-30T03:19:13.674Z,86.44
2022-10-30T03:20:13.661Z,86.72
2022-10-30T03:21:13.642Z,87.01
2022-10-30T03:22:13.620Z,87.30
2022-10-30T03:23:13.605Z,86.92
2022-10-30T03:24:13.591Z,86.34
2022-10-30T03:25:13.597Z,86.25
2022-10-30T03:26:13.560Z,85.67
2022-10-30T03:27:13.537Z,86.15
2022-10-30T03:28:13.528Z,85.67
2022-10-30T03:29:13.504Z,85.33
2022-10-30T03:30:13.485Z,85.62
2022-10-30T03:31:13.478Z,85.38
2022-10-30T03:32:13.555Z,85.52
2022-10-30T03:33:13.436Z,85.00
2022-10-30T03:34:13.421Z,84.42
2022-10-30T03:35:13.402Z,84.23
2022-10-30T03:36:13.391Z,83.65
2022-10-30T03:37:13.373Z,83.47
2022-10-30T03:38:13.381Z,83.56
2022-10-30T03:39:13.356Z,84.04
2022-10-30T03:40:13.354Z,83.85
2022-10-30T03:41:13.359Z,82.98
2022-10-30T03:42:13.282Z,81.31
2022-10-30T03:43:13.268Z,80.26
2022-10-30T03:44:13.256Z,79.59
2022-10-30T03:45:13.232Z,79.21
2022-10-30T03:46:13.222Z,79.49
2022-10-30T03:47:13.449Z,79.39
2022-10-30T03:48:13.195Z,78.92
2022-10-30T03:49:13.170Z,78.72
2022-10-30T03:50:13.155Z,78.44
2022-10-30T03:51:13.140Z,78.82
2022-10-30T03:52:13.120Z,78.72
2022-10-30T03:53:13.107Z,78.44
2022-10-30T03:54:13.075Z,79.01
2022-10-30T03:55:13.061Z,78.92
2022-10-30T03:56:13.040Z,79.11
2022-10-30T03:57:13.044Z,79.49
2022-10-30T03:58:13.008Z,79.59
2022-10-30T03:59:12.994Z,79.68
2022-10-30T04:00:12.989Z,79.68
2022-10-30T04:01:13.165Z,79.59
2022-10-30T04:02:13.202Z,79.39
2022-10-30T04:03:12.927Z,79.49
2022-10-30T04:04:12.906Z,78.82
2022-10-30T04:05:12.892Z,79.21
2022-10-30T04:06:12.871Z,78.92
2022-10-30T04:07:12.850Z,78.63
2022-10-30T04:08:12.839Z,79.11
2022-10-30T04:09:12.820Z,79.39
2022-10-30T04:10:12.804Z,78.53
2022-10-30T04:11:12.901Z,77.00
2022-10-30T04:12:12.765Z,75.90
2022-10-30T04:13:12.771Z,76.10
2022-10-30T04:14:12.739Z,75.71
2022-10-30T04:15:12.715Z,75.46
2022-10-30T04:16:12.697Z,75.37
2022-10-30T04:17:12.690Z,74.98
2022-10-30T04:18:12.661Z,75.14
2022-10-30T04:19:12.643Z,74.98
2022-10-30T04:20:12.626Z,74.89
2022-10-30T04:21:12.607Z,75.75
2022-10-30T04:22:12.598Z,75.46
2022-10-30T04:23:12.581Z,75.75
2022-10-30T04:24:12.561Z,76.04
2022-10-30T04:25:12.541Z,75.46
2022-10-30T04:26:12.524Z,76.52
2022-10-30T04:27:12.508Z,76.23
2022-10-30T04:28:12.489Z,76.42
2022-10-30T04:29:12.492Z,76.62
2022-10-30T04:30:12.451Z,76.04
2022-10-30T04:31:12.438Z,76.04
2022-10-30T04:32:12.427Z,76.10
2022-10-30T04:33:12.412Z,76.04
2022-10-30T04:34:12.393Z,76.67
2022-10-30T04:35:12.370Z,75.71
2022-10-30T04:36:12.352Z,75.62
2022-10-30T04:37:12.331Z,76.29
2022-10-30T04:38:12.313Z,76.39
2022-10-30T04:39:12.295Z,75.71
2022-10-30T04:40:12.279Z,75.23
2022-10-30T04:41:12.258Z,74.37
2022-10-30T04:42:12.248Z,73.41
2022-10-30T04:43:12.232Z,73.13
2022-10-30T04:44:12.208Z,72.64
2022-10-30T04:45:15.120Z,72.84
2022-10-30T04:46:12.175Z,73.22
2022-10-30T04:47:12.154Z,73.51
2022-10-30T04:48:12.141Z,73.32
2022-10-30T04:49:12.122Z,73.70
2022-10-30T04:50:12.106Z,73.22
2022-10-30T04:51:12.084Z,73.51
2022-10-30T04:52:12.067Z,74.27
2022-10-30T04:53:12.052Z,74.27
2022-10-30T04:54:12.037Z,74.08
2022-10-30T04:55:12.016Z,74.57
2022-10-30T04:56:11.998Z,74.76
2022-10-30T04:57:11.993Z,74.76
2022-10-30T04:58:11.966Z,74.85
2022-10-30T04:59:11.947Z,75.14
2022-10-30T05:00:11.932Z,74.27
2022-10-30T05:01:11.978Z,74.47
2022-10-30T05:02:12.137Z,73.51
2022-10-30T05:03:11.875Z,73.90
2022-10-30T05:04:11.856Z,73.51
2022-10-30T05:05:11.850Z,73.90
2022-10-30T05:06:11.821Z,73.90
2022-10-30T05:07:11.800Z,73.13
2022-10-30T05:08:11.784Z,73.51
2022-10-30T05:09:11.768Z,74.08
2022-10-30T05:10:11.746Z,73.95
2022-10-30T05:11:11.731Z,73.57
2022-10-30T05:12:11.719Z,72.23
2022-10-30T05:13:11.698Z,72.13
2022-10-30T05:14:11.680Z,71.94
2022-10-30T05:15:11.666Z,72.71
2022-10-30T05:16:11.644Z,72.42
2022-10-30T05:17:11.645Z,72.80
2022-10-30T05:18:11.608Z,72.55
2022-10-30T05:19:11.601Z,73.51
2022-10-30T05:20:14.777Z,72.84
2022-10-30T05:21:11.560Z,73.41
2022-10-30T05:22:11.532Z,73.41
2022-10-30T05:23:11.519Z,73.13
2022-10-30T05:24:11.502Z,73.32
2022-10-30T05:25:11.488Z,74.24
2022-10-30T05:26:11.464Z,75.04
2022-10-30T05:27:11.445Z,75.04
2022-10-30T05:28:11.429Z,75.14
2022-10-30T05:29:11.411Z,75.14
2022-10-30T05:30:11.393Z,75.90
2022-10-30T05:31:11.375Z,76.86
2022-10-30T05:32:11.448Z,77.53
2022-10-30T05:33:11.362Z,78.40
2022-10-30T05:34:11.322Z,78.30
2022-10-30T05:35:11.310Z,78.30
2022-10-30T05:36:11.284Z,78.97
2022-10-30T05:37:11.267Z,78.40
2022-10-30T05:38:11.249Z,79.03
2022-10-30T05:39:11.233Z,78.84
2022-10-30T05:40:11.219Z,78.27
2022-10-30T05:41:11.196Z,78.45
2022-10-30T05:42:13.673Z,78.07
2022-10-30T05:43:11.163Z,78.45
2022-10-30T05:44:11.145Z,78.27
2022-10-30T05:45:11.124Z,77.82
2022-10-30T05:46:11.109Z,77.82
2022-10-30T05:47:11.091Z,78.02
2022-10-30T05:48:11.071Z,77.06
2022-10-30T05:49:11.075Z,78.59
2022-10-30T05:50:11.042Z,78.69
2022-10-30T05:51:11.025Z,78.88
2022-10-30T05:52:11.003Z,79.16
2022-10-30T05:53:10.983Z,78.78
2022-10-30T05:54:10.964Z,79.45
2022-10-30T05:55:10.949Z,79.83
2022-10-30T05:56:10.928Z,80.22
2022-10-30T05:57:10.917Z,80.27
2022-10-30T05:58:10.893Z,80.27
2022-10-30T05:59:10.878Z,80.41
2022-10-30T06:00:10.863Z,80.22
2022-10-30T06:01:10.855Z,80.18
2022-10-30T06:02:10.848Z,79.55
2022-10-30T06:03:10.808Z,79.36
2022-10-30T06:04:10.797Z,79.36
2022-10-30T06:05:10.790Z,78.88
2022-10-30T06:06:10.760Z,79.07
2022-10-30T06:07:10.743Z,78.88
2022-10-30T06:08:10.714Z,78.30
2022-10-30T06:09:10.701Z,78.74
2022-10-30T06:10:10.687Z,78.74
2022-10-30T06:11:10.670Z,79.03
2022-10-30T06:12:10.652Z,78.74
2022-10-30T06:13:10.629Z,78.84
2022-10-30T06:14:10.610Z,78.93
2022-10-30T06:15:10.596Z,78.45
2022-10-30T06:16:10.576Z,78.36
2022-10-30T06:17:10.561Z,78.45
2022-10-30T06:18:10.542Z,78.84
2022-10-30T06:19:15.525Z,78.36
2022-10-30T06:20:10.503Z,78.93
2022-10-30T06:21:10.510Z,78.64
2022-10-30T06:22:10.466Z,79.13
2022-10-30T06:23:10.450Z,78.84
2022-10-30T06:24:10.439Z,78.74
2022-10-30T06:25:10.416Z,78.55
2022-10-30T06:26:10.403Z,78.36
2022-10-30T06:27:10.388Z,78.74
2022-10-30T06:28:10.362Z,77.88
2022-10-30T06:29:10.342Z,77.73
2022-10-30T06:30:10.320Z,78.30
2022-10-30T06:31:10.535Z,78.17
2022-10-30T06:32:10.289Z,78.59
2022-10-30T06:33:10.272Z,78.49
2022-10-30T06:34:10.248Z,78.84
2022-10-30T06:35:10.235Z,79.03
2022-10-30T06:36:10.217Z,78.27
2022-10-30T06:37:10.269Z,76.92
2022-10-30T06:38:10.178Z,76.82
2022-10-30T06:39:10.170Z,75.96
2022-10-30T06:40:10.145Z,75.77
2022-10-30T06:41:10.130Z,75.39
2022-10-30T06:42:10.113Z,75.10
2022-10-30T06:43:10.090Z,74.91
2022-10-30T06:44:10.079Z,74.91
2022-10-30T06:45:10.059Z,75.10
2022-10-30T06:46:10.105Z,75.68
2022-10-30T06:47:10.035Z,76.06
2022-10-30T06:48:10.010Z,76.82
2022-10-30T06:49:09.983Z,77.02
2022-10-30T06:50:09.969Z,76.73
2022-10-30T06:51:09.953Z,76.35
2022-10-30T06:52:09.933Z,77.02
2022-10-30T06:53:09.939Z,76.64
2022-10-30T06:54:09.896Z,77.40
2022-10-30T06:55:09.881Z,78.27
2022-10-30T06:56:09.864Z,77.59
2022-10-30T06:57:09.845Z,76.64
2022-10-30T06:58:09.827Z,75.68
2022-10-30T06:59:09.810Z,75.58
2022-10-30T07:00:09.790Z,76.06
2022-10-30T07:01:09.772Z,76.57
2022-10-30T07:02:11.239Z,76.64
2022-10-30T07:03:09.744Z,77.44
2022-10-30T07:04:09.721Z,78.20
2022-10-30T07:05:09.704Z,78.59
2022-10-30T07:06:09.690Z,79.07
2022-10-30T07:07:09.667Z,79.36
2022-10-30T07:08:09.651Z,79.64
2022-10-30T07:09:09.655Z,81.08
2022-10-30T07:10:09.617Z,80.79
2022-10-30T07:11:09.599Z,81.70
2022-10-30T07:12:09.582Z,82.75
2022-10-30T07:13:09.567Z,82.94
2022-10-30T07:14:09.545Z,83.42
2022-10-30T07:15:09.532Z,83.85
2022-10-30T07:16:09.523Z,87.21
2022-10-30T07:17:09.496Z,91.28
2022-10-30T07:18:09.484Z,92.77
2022-10-30T07:19:09.464Z,95.45
2022-10-30T07:20:09.455Z,97.19
2022-10-30T07:21:09.435Z,99.99
2022-10-30T07:22:09.421Z,99.99
2022-10-30T07:23:09.407Z,99.99
2022-10-30T07:24:09.393Z,99.99
2022-10-30T07:25:09.394Z,99.99
2022-10-30T07:26:09.361Z,99.99
2022-10-30T07:27:09.344Z,99.99
2022-10-30T07:28:09.335Z,99.99
2022-10-30T07:29:09.318Z,99.99
2022-10-30T07:30:09.304Z,99.99
2022-10-30T07:31:09.295Z,99.99
2022-10-30T07:32:09.278Z,99.99
2022-10-30T07:33:09.262Z,99.99
2022-10-30T07:34:09.252Z,99.99
2022-10-30T07:35:09.241Z,99.99
2022-10-30T07:36:09.226Z,99.99
2022-10-30T07:37:09.209Z,99.99
2022-10-30T07:38:09.200Z,99.99
2022-10-30T07:39:09.184Z,99.99
2022-10-30T07:40:12.769Z,99.99
2022-10-30T07:41:09.184Z,99.99
2022-10-30T07:42:09.150Z,99.99
2022-10-30T07:43:09.133Z,99.99
2022-10-30T07:44:09.125Z,99.99
2022-10-30T07:46:09.103Z,99.99
2022-10-30T07:47:09.085Z,99.99
2022-10-30T07:48:09.076Z,99.99
2022-10-30T07:49:09.061Z,99.99
2022-10-30T07:50:09.049Z,99.99
2022-10-30T07:51:09.031Z,99.99
2022-10-30T07:52:14.508Z,99.99
2022-10-30T07:53:09.010Z,99.99
2022-10-30T07:54:08.998Z,99.99
2022-10-30T07:55:08.991Z,99.99
2022-10-30T07:56:08.972Z,99.99
2022-10-30T07:57:08.979Z,99.99
2022-10-30T07:58:08.944Z,99.99
2022-10-30T07:59:08.931Z,99.99
2022-10-30T08:00:08.917Z,99.99
2022-10-30T08:01:08.925Z,99.99
2022-10-30T08:02:09.071Z,99.99
2022-10-30T08:03:08.883Z,99.99
2022-10-30T08:04:08.860Z,99.99
2022-10-30T08:05:08.849Z,99.99
2022-10-30T08:07:08.821Z,99.99
2022-10-30T08:08:08.811Z,99.99
2022-10-30T08:09:08.788Z,99.99
2022-10-30T08:10:08.798Z,99.99
2022-10-30T08:11:08.765Z,99.99
2022-10-30T08:12:08.753Z,99.99
2022-10-30T08:13:08.754Z,99.99
2022-10-30T08:14:08.730Z,99.99
2022-10-30T08:15:08.706Z,99.99
2022-10-30T08:16:08.699Z,99.99
2022-10-30T08:17:08.680Z,99.99
2022-10-30T08:18:08.665Z,99.99
2022-10-30T08:19:08.649Z,99.99
2022-10-30T08:20:08.634Z,99.99
2022-10-30T08:21:08.625Z,99.99
2022-10-30T08:22:08.609Z,99.99
2022-10-30T08:23:08.597Z,99.99
2022-10-30T08:24:08.580Z,99.99
2022-10-30T08:25:08.568Z,99.99
2022-10-30T08:26:08.551Z,99.99
2022-10-30T08:27:08.541Z,99.99
2022-10-30T08:28:08.522Z,99.99
2022-10-30T08:29:08.533Z,99.99
2022-10-30T08:30:08.498Z,99.99
2022-10-30T08:31:08.487Z,99.36
2022-10-30T08:32:08.473Z,97.38
2022-10-30T08:33:08.466Z,95.15
2022-10-30T08:34:08.463Z,92.20
2022-10-30T08:35:08.438Z,89.11
2022-10-30T08:36:08.439Z,86.73
2022-10-30T08:37:08.416Z,84.25
2022-10-30T08:38:08.407Z,82.41
2022-10-30T08:39:08.396Z,81.10
2022-10-30T08:40:08.387Z,79.00
2022-10-30T08:41:08.372Z,79.30
2022-10-30T08:42:08.362Z,76.85
2022-10-30T08:43:08.356Z,75.30
2022-10-30T08:44:08.344Z,73.16
2022-10-30T08:45:08.354Z,72.71
2022-10-30T08:46:08.328Z,70.90
2022-10-30T08:47:08.317Z,69.67
2022-10-30T08:48:08.309Z,69.48
2022-10-30T08:49:08.297Z,68.90
2022-10-30T08:50:08.363Z,68.32
2022-10-30T08:51:08.284Z,68.74
2022-10-30T08:52:08.279Z,67.54
2022-10-30T08:53:08.267Z,67.57
2022-10-30T08:54:08.261Z,66.27
2022-10-30T08:55:08.256Z,67.47
2022-10-30T08:56:08.248Z,68.87
2022-10-30T08:57:08.239Z,68.60
2022-10-30T08:58:08.232Z,67.63
2022-10-30T08:59:08.225Z,68.05
2022-10-30T09:00:08.218Z,66.66
2022-10-30T09:01:08.317Z,64.20
2022-10-30T09:02:08.426Z,62.90
2022-10-30T09:03:08.206Z,63.68
2022-10-30T09:04:08.196Z,64.13
2022-10-30T09:05:08.190Z,62.31
2022-10-30T09:06:08.198Z,61.72
2022-10-30T09:07:11.915Z,61.40
2022-10-30T09:08:08.178Z,62.22
2022-10-30T09:09:08.173Z,63.26
2022-10-30T09:10:08.162Z,63.58
2022-10-30T09:11:08.160Z,63.65
2022-10-30T09:12:08.160Z,63.22
2022-10-30T09:13:08.150Z,62.90
2022-10-30T09:14:08.149Z,63.48
2022-10-30T09:15:08.140Z,64.39
2022-10-30T09:16:08.145Z,64.10
2022-10-30T09:17:08.153Z,63.15
2022-10-30T09:18:08.129Z,62.76
2022-10-30T09:19:08.122Z,62.79
2022-10-30T09:20:08.129Z,61.40
2022-10-30T09:21:08.113Z,61.43
2022-10-30T09:22:08.106Z,60.78
2022-10-30T09:23:08.103Z,60.71
2022-10-30T09:24:08.101Z,59.86
2022-10-30T09:25:08.090Z,59.77
2022-10-30T09:26:08.090Z,59.50
2022-10-30T09:27:08.082Z,58.33
2022-10-30T09:28:08.081Z,57.81
2022-10-30T09:29:08.078Z,58.59
2022-10-30T09:30:08.073Z,59.25
2022-10-30T09:31:08.071Z,60.19
2022-10-30T09:32:08.067Z,60.49
2022-10-30T09:33:08.079Z,60.10
2022-10-30T09:34:08.061Z,60.06
2022-10-30T09:35:08.058Z,59.38
2022-10-30T09:36:08.048Z,58.33
2022-10-30T09:37:08.042Z,58.52
2022-10-30T09:38:08.037Z,57.77
2022-10-30T09:39:08.032Z,56.13
2022-10-30T09:40:08.032Z,56.13
2022-10-30T09:41:08.023Z,56.52
2022-10-30T09:42:08.020Z,56.23
2022-10-30T09:43:08.013Z,56.92
2022-10-30T09:44:08.017Z,56.13
2022-10-30T09:45:28.035Z,56.72
2022-10-30T09:46:08.004Z,56.82
2022-10-30T09:47:08.002Z,56.23
2022-10-30T09:48:07.995Z,55.71
2022-10-30T09:50:07.991Z,57.52
2022-10-30T09:51:07.976Z,59.41
2022-10-30T09:52:07.976Z,59.51
2022-10-30T09:53:07.980Z,59.83
2022-10-30T09:54:07.972Z,59.38
2022-10-30T09:55:07.965Z,59.47
2022-10-30T09:56:07.963Z,58.52
2022-10-30T09:57:07.958Z,57.57
2022-10-30T09:58:07.953Z,57.56
2022-10-30T09:59:07.949Z,59.84
2022-10-30T10:00:07.946Z,61.34
2022-10-30T10:01:08.014Z,61.63
2022-10-30T10:02:08.057Z,62.09
2022-10-30T10:03:07.924Z,62.60
2022-10-30T10:04:07.922Z,62.44
2022-10-30T10:05:07.937Z,61.66
2022-10-30T10:06:07.913Z,62.05
2022-10-30T10:07:07.914Z,61.76
2022-10-30T10:08:07.903Z,60.85
2022-10-30T10:09:07.900Z,60.55
2022-10-30T10:10:08.028Z,60.29
2022-10-30T10:11:07.893Z,59.44
2022-10-30T10:12:07.887Z,59.38
2022-10-30T10:13:08.389Z,58.69
2022-10-30T10:14:07.874Z,58.79
2022-10-30T10:15:07.860Z,58.89
2022-10-30T10:16:07.864Z,58.01
2022-10-30T10:17:07.850Z,58.59
2022-10-30T10:18:07.852Z,59.41
2022-10-30T10:19:07.841Z,59.35
2022-10-30T10:20:07.838Z,60.03
2022-10-30T10:21:07.853Z,60.66
2022-10-30T10:22:07.827Z,61.47
2022-10-30T10:23:07.818Z,61.37
2022-10-30T10:24:07.817Z,60.66
2022-10-30T10:25:07.809Z,62.45
2022-10-30T10:26:07.802Z,63.06
2022-10-30T10:27:07.799Z,62.70
2022-10-30T10:28:07.791Z,61.57
2022-10-30T10:29:07.780Z,60.91
2022-10-30T10:30:07.774Z,59.87
2022-10-30T10:31:07.791Z,60.06
2022-10-30T10:32:07.764Z,60.00
2022-10-30T10:33:07.767Z,59.05
2022-10-30T10:34:07.754Z,58.47
2022-10-30T10:35:07.749Z,59.41
2022-10-30T10:36:07.749Z,59.22
2022-10-30T10:37:07.757Z,59.77
2022-10-30T10:38:07.736Z,60.36
2022-10-30T10:39:07.726Z,61.18
2022-10-30T10:40:07.727Z,61.73
2022-10-30T10:41:07.712Z,62.80
2022-10-30T10:42:07.705Z,63.97
2022-10-30T10:43:07.702Z,66.31
2022-10-30T10:44:07.689Z,66.83
2022-10-30T10:45:07.683Z,66.27
2022-10-30T10:46:07.704Z,65.43
2022-10-30T10:47:07.736Z,65.04
2022-10-30T10:48:07.725Z,64.17
2022-10-30T10:49:07.659Z,63.58
2022-10-30T10:50:07.652Z,64.29
2022-10-30T10:51:07.650Z,63.61
2022-10-30T10:52:07.645Z,64.13
2022-10-30T10:53:07.680Z,63.54
2022-10-30T10:54:07.622Z,62.86
2022-10-30T10:55:07.616Z,63.68
2022-10-30T10:56:07.609Z,64.75
2022-10-30T10:57:07.600Z,65.23
2022-10-30T10:58:07.599Z,65.23
2022-10-30T10:59:07.588Z,64.78
2022-10-30T11:00:07.585Z,63.74
2022-10-30T11:01:07.618Z,62.86
2022-10-30T11:02:07.755Z,63.28
2022-10-30T11:03:07.638Z,62.73
2022-10-30T11:04:07.553Z,62.02
2022-10-30T11:05:07.544Z,62.05
2022-10-30T11:06:07.539Z,61.85
2022-10-30T11:07:07.529Z,61.33
2022-10-30T11:08:07.527Z,62.57
2022-10-30T11:09:07.537Z,62.86
2022-10-30T11:10:07.507Z,63.71
2022-10-30T11:11:07.510Z,64.49
2022-10-30T11:12:07.500Z,65.07
2022-10-30T11:13:07.490Z,65.17
2022-10-30T11:14:07.483Z,65.07
2022-10-30T11:15:07.481Z,65.82
2022-10-30T11:16:07.471Z,66.50
2022-10-30T11:17:07.460Z,66.99
2022-10-30T11:18:07.485Z,66.21
2022-10-30T11:19:07.442Z,66.14
2022-10-30T11:20:07.443Z,67.11
2022-10-30T11:21:07.429Z,67.80
2022-10-30T11:22:07.428Z,67.80
2022-10-30T11:23:07.416Z,67.54
2022-10-30T11:24:07.414Z,67.02
2022-10-30T11:25:07.421Z,67.73
2022-10-30T11:26:07.395Z,68.12
2022-10-30T11:27:07.385Z,68.02
2022-10-30T11:28:07.381Z,67.15
2022-10-30T11:29:07.371Z,67.15
2022-10-30T11:30:07.369Z,66.86
2022-10-30T11:31:07.357Z,68.29
2022-10-30T11:32:07.346Z,68.80
2022-10-30T11:33:07.340Z,68.71
2022-10-30T11:34:07.334Z,67.77
2022-10-30T11:35:07.334Z,67.25
2022-10-30T11:36:10.341Z,67.63
2022-10-30T11:37:07.311Z,67.28
2022-10-30T11:38:07.305Z,66.99
2022-10-30T11:39:07.296Z,66.66
2022-10-30T11:40:07.284Z,67.31
2022-10-30T11:41:07.301Z,68.67
2022-10-30T11:42:07.277Z,68.67
2022-10-30T11:43:07.266Z,69.00
2022-10-30T11:44:07.260Z,68.22
2022-10-30T11:45:07.253Z,68.51
2022-10-30T11:46:07.241Z,68.29
2022-10-30T11:47:07.232Z,68.90
2022-10-30T11:48:13.036Z,67.73
2022-10-30T11:49:07.213Z,67.54
2022-10-30T11:50:07.210Z,67.44
2022-10-30T11:51:07.313Z,67.54
2022-10-30T11:52:07.194Z,67.50
2022-10-30T11:53:07.190Z,68.09
2022-10-30T11:54:07.181Z,68.57
2022-10-30T11:55:07.170Z,68.57
2022-10-30T11:56:07.162Z,68.02
2022-10-30T11:57:07.179Z,68.90
2022-10-30T11:58:07.147Z,67.83
2022-10-30T11:59:07.139Z,67.25
2022-10-30T12:00:07.128Z,68.32
2022-10-30T12:01:07.119Z,67.05
2022-10-30T12:02:07.358Z,68.16
2022-10-30T12:03:07.109Z,67.44
2022-10-30T12:04:07.098Z,67.63
2022-10-30T12:05:07.096Z,67.77
2022-10-30T12:06:07.081Z,67.47
2022-10-30T12:07:07.071Z,66.60
2022-10-30T12:08:07.063Z,66.79
2022-10-30T12:09:07.055Z,67.15
2022-10-30T12:10:07.051Z,67.50
2022-10-30T12:11:07.043Z,67.21
2022-10-30T12:12:07.032Z,67.73
2022-10-30T12:13:07.045Z,68.02
2022-10-30T12:14:07.025Z,67.93
2022-10-30T12:15:07.007Z,68.22
2022-10-30T12:16:07.010Z,67.80
2022-10-30T12:17:06.991Z,67.63
2022-10-30T12:18:06.990Z,68.12
2022-10-30T12:19:06.974Z,67.90
2022-10-30T12:20:06.965Z,69.06
2022-10-30T12:21:06.962Z,68.90
2022-10-30T12:22:09.795Z,68.71
2022-10-30T12:23:06.942Z,68.09
2022-10-30T12:24:07.058Z,68.67
2022-10-30T12:25:06.947Z,69.32
2022-10-30T12:26:06.928Z,69.71
2022-10-30T12:27:06.924Z,69.09
2022-10-30T12:28:06.900Z,70.65
2022-10-30T12:29:06.910Z,70.84
2022-10-30T12:30:09.325Z,71.36
2022-10-30T12:31:06.877Z,71.74
2022-10-30T12:32:06.871Z,72.61
2022-10-30T12:33:06.861Z,72.09
2022-10-30T12:34:06.931Z,72.03
2022-10-30T12:35:06.849Z,73.49
2022-10-30T12:36:06.832Z,75.24
2022-10-30T12:37:06.826Z,74.30
2022-10-30T12:38:06.831Z,74.01
2022-10-30T12:39:06.803Z,74.24
2022-10-30T12:40:06.794Z,73.18
2022-10-30T12:41:06.789Z,72.88
2022-10-30T12:42:06.776Z,72.39
2022-10-30T12:43:06.769Z,72.30
2022-10-30T12:44:06.756Z,72.49
2022-10-30T12:45:06.767Z,72.69
2022-10-30T12:46:06.755Z,72.88
2022-10-30T12:47:06.728Z,73.08
2022-10-30T12:48:06.720Z,72.36
2022-10-30T12:49:06.709Z,72.65
2022-10-30T12:50:06.762Z,72.78
2022-10-30T12:51:06.691Z,72.39
2022-10-30T12:52:06.685Z,71.62
2022-10-30T12:53:06.669Z,72.17
2022-10-30T12:54:06.665Z,72.78
2022-10-30T12:55:06.656Z,73.27
2022-10-30T12:56:06.645Z,73.52